sensor_id;sensor_type;location;lat;lon;timestamp;P1;durP1;ratioP1;P2;durP2;ratioP2
7179;SDS011;3631;42.152;24.756;2023-06-04T00:01:25;5.45;;;4.45;;
7179;SDS011;3631;42.152;24.756;2023-06-04T00:03:52;4.82;;;4.43;;
7179;SDS011;3631;42.152;24.756;2023-06-04T00:06:19;5.88;;;5.07;;
7179;SDS011;3631;42.152;24.756;2023-06-04T00:08:46;7.50;;;5.05;;
7179;SDS011;3631;42.152;24.756;2023-06-04T00:11:13;5.70;;;4.57;;
7179;SDS011;3631;42.152;24.756;2023-06-04T00:13:40;8.05;;;4.40;;
7179;SDS011;3631;42.152;24.756;2023-06-04T00:16:08;6.03;;;4.80;;
7179;SDS011;3631;42.152;24.756;2023-06-04T00:18:35;5.20;;;4.70;;
7179;SDS011;3631;42.152;24.756;2023-06-04T00:21:02;5.40;;;4.95;;
7179;SDS011;3631;42.152;24.756;2023-06-04T00:23:29;9.10;;;5.40;;
7179;SDS011;3631;42.152;24.756;2023-06-04T00:25:56;5.43;;;4.68;;
7179;SDS011;3631;42.152;24.756;2023-06-04T00:28:22;8.15;;;4.70;;
7179;SDS011;3631;42.152;24.756;2023-06-04T00:30:50;7.05;;;4.97;;
7179;SDS011;3631;42.152;24.756;2023-06-04T00:33:18;5.88;;;5.30;;
7179;SDS011;3631;42.152;24.756;2023-06-04T00:35:45;5.30;;;4.88;;
7179;SDS011;3631;42.152;24.756;2023-06-04T00:38:12;5.05;;;4.50;;
7179;SDS011;3631;42.152;24.756;2023-06-04T00:40:39;7.38;;;4.68;;
7179;SDS011;3631;42.152;24.756;2023-06-04T00:43:06;6.85;;;5.05;;
7179;SDS011;3631;42.152;24.756;2023-06-04T00:45:33;4.82;;;4.40;;
7179;SDS011;3631;42.152;24.756;2023-06-04T00:48:00;8.45;;;5.07;;
7179;SDS011;3631;42.152;24.756;2023-06-04T00:50:29;5.00;;;4.70;;
7179;SDS011;3631;42.152;24.756;2023-06-04T00:52:58;5.40;;;5.00;;
7179;SDS011;3631;42.152;24.756;2023-06-04T00:55:25;7.25;;;5.03;;
7179;SDS011;3631;42.152;24.756;2023-06-04T00:57:52;5.55;;;5.05;;
7179;SDS011;3631;42.152;24.756;2023-06-04T01:00:19;7.72;;;5.03;;
7179;SDS011;3631;42.152;24.756;2023-06-04T01:02:47;11.23;;;5.30;;
7179;SDS011;3631;42.152;24.756;2023-06-04T01:05:20;5.90;;;4.97;;
7179;SDS011;3631;42.152;24.756;2023-06-04T01:08:03;5.97;;;5.40;;
7179;SDS011;3631;42.152;24.756;2023-06-04T01:10:34;5.57;;;5.10;;
7179;SDS011;3631;42.152;24.756;2023-06-04T01:13:01;19.55;;;5.38;;
7179;SDS011;3631;42.152;24.756;2023-06-04T01:15:28;5.40;;;4.90;;
7179;SDS011;3631;42.152;24.756;2023-06-04T01:17:56;6.38;;;4.95;;
7179;SDS011;3631;42.152;24.756;2023-06-04T01:20:29;5.88;;;5.00;;
7179;SDS011;3631;42.152;24.756;2023-06-04T01:25:58;5.20;;;4.45;;
7179;SDS011;3631;42.152;24.756;2023-06-04T01:28:27;6.15;;;5.65;;
7179;SDS011;3631;42.152;24.756;2023-06-04T01:30:55;5.72;;;5.18;;
7179;SDS011;3631;42.152;24.756;2023-06-04T01:33:24;8.32;;;5.25;;
7179;SDS011;3631;42.152;24.756;2023-06-04T01:35:51;5.60;;;5.20;;
7179;SDS011;3631;42.152;24.756;2023-06-04T01:38:18;5.60;;;5.10;;
7179;SDS011;3631;42.152;24.756;2023-06-04T01:40:47;6.07;;;5.47;;
7179;SDS011;3631;42.152;24.756;2023-06-04T01:43:15;5.97;;;5.03;;
7179;SDS011;3631;42.152;24.756;2023-06-04T01:45:42;6.15;;;5.65;;
7179;SDS011;3631;42.152;24.756;2023-06-04T01:48:09;5.03;;;4.53;;
7179;SDS011;3631;42.152;24.756;2023-06-04T01:50:36;5.05;;;4.63;;
7179;SDS011;3631;42.152;24.756;2023-06-04T01:53:03;5.32;;;4.93;;
7179;SDS011;3631;42.152;24.756;2023-06-04T01:55:30;5.25;;;4.85;;
7179;SDS011;3631;42.152;24.756;2023-06-04T01:57:59;5.75;;;5.10;;
7179;SDS011;3631;42.152;24.756;2023-06-04T02:00:26;6.22;;;5.20;;
7179;SDS011;3631;42.152;24.756;2023-06-04T02:02:53;7.07;;;5.18;;
7179;SDS011;3631;42.152;24.756;2023-06-04T02:05:21;5.50;;;5.00;;
7179;SDS011;3631;42.152;24.756;2023-06-04T02:07:49;5.72;;;5.28;;
7179;SDS011;3631;42.152;24.756;2023-06-04T02:10:17;7.15;;;6.65;;
7179;SDS011;3631;42.152;24.756;2023-06-04T02:12:54;6.70;;;6.07;;
7179;SDS011;3631;42.152;24.756;2023-06-04T02:15:25;8.25;;;5.43;;
7179;SDS011;3631;42.152;24.756;2023-06-04T02:17:54;5.57;;;5.07;;
7179;SDS011;3631;42.152;24.756;2023-06-04T02:20:24;6.10;;;5.43;;
7179;SDS011;3631;42.152;24.756;2023-06-04T02:22:53;5.88;;;5.30;;
7179;SDS011;3631;42.152;24.756;2023-06-04T02:25:20;5.63;;;5.15;;
7179;SDS011;3631;42.152;24.756;2023-06-04T02:27:48;5.25;;;4.88;;
7179;SDS011;3631;42.152;24.756;2023-06-04T02:30:14;5.93;;;5.40;;
7179;SDS011;3631;42.152;24.756;2023-06-04T02:32:43;6.13;;;5.72;;
7179;SDS011;3631;42.152;24.756;2023-06-04T02:35:10;5.50;;;5.20;;
7179;SDS011;3631;42.152;24.756;2023-06-04T02:37:37;6.95;;;5.38;;
7179;SDS011;3631;42.152;24.756;2023-06-04T02:40:04;8.20;;;4.63;;
7179;SDS011;3631;42.152;24.756;2023-06-04T02:42:32;6.45;;;5.72;;
7179;SDS011;3631;42.152;24.756;2023-06-04T02:44:59;6.00;;;5.50;;
7179;SDS011;3631;42.152;24.756;2023-06-04T02:47:26;6.15;;;5.45;;
7179;SDS011;3631;42.152;24.756;2023-06-04T02:49:55;10.88;;;7.07;;
7179;SDS011;3631;42.152;24.756;2023-06-04T02:52:22;9.60;;;7.10;;
7179;SDS011;3631;42.152;24.756;2023-06-04T02:54:50;8.95;;;5.85;;
7179;SDS011;3631;42.152;24.756;2023-06-04T02:57:17;5.35;;;4.95;;
7179;SDS011;3631;42.152;24.756;2023-06-04T02:59:44;6.35;;;5.95;;
7179;SDS011;3631;42.152;24.756;2023-06-04T03:02:11;5.75;;;5.35;;
7179;SDS011;3631;42.152;24.756;2023-06-04T03:04:40;6.05;;;5.57;;
7179;SDS011;3631;42.152;24.756;2023-06-04T03:07:09;6.47;;;5.93;;
7179;SDS011;3631;42.152;24.756;2023-06-04T03:09:36;5.75;;;5.35;;
7179;SDS011;3631;42.152;24.756;2023-06-04T03:12:04;5.32;;;5.03;;
7179;SDS011;3631;42.152;24.756;2023-06-04T03:14:31;5.70;;;4.85;;
7179;SDS011;3631;42.152;24.756;2023-06-04T03:16:59;7.00;;;4.85;;
7179;SDS011;3631;42.152;24.756;2023-06-04T03:19:33;7.47;;;5.63;;
7179;SDS011;3631;42.152;24.756;2023-06-04T03:22:02;5.53;;;5.00;;
7179;SDS011;3631;42.152;24.756;2023-06-04T03:24:34;5.45;;;5.05;;
7179;SDS011;3631;42.152;24.756;2023-06-04T03:27:02;5.22;;;4.93;;
7179;SDS011;3631;42.152;24.756;2023-06-04T03:29:30;5.75;;;5.20;;
7179;SDS011;3631;42.152;24.756;2023-06-04T03:31:57;5.93;;;5.43;;
7179;SDS011;3631;42.152;24.756;2023-06-04T03:34:24;5.90;;;5.50;;
7179;SDS011;3631;42.152;24.756;2023-06-04T03:36:51;8.10;;;5.45;;
7179;SDS011;3631;42.152;24.756;2023-06-04T03:39:18;7.68;;;5.75;;
7179;SDS011;3631;42.152;24.756;2023-06-04T03:41:46;5.63;;;5.18;;
7179;SDS011;3631;42.152;24.756;2023-06-04T03:44:13;5.97;;;5.38;;
7179;SDS011;3631;42.152;24.756;2023-06-04T03:46:41;8.52;;;5.88;;
7179;SDS011;3631;42.152;24.756;2023-06-04T03:49:08;5.63;;;5.13;;
7179;SDS011;3631;42.152;24.756;2023-06-04T03:51:35;5.90;;;5.22;;
7179;SDS011;3631;42.152;24.756;2023-06-04T03:54:02;5.22;;;4.82;;
7179;SDS011;3631;42.152;24.756;2023-06-04T03:56:29;5.55;;;5.15;;
7179;SDS011;3631;42.152;24.756;2023-06-04T03:58:58;5.45;;;5.07;;
7179;SDS011;3631;42.152;24.756;2023-06-04T04:01:25;5.55;;;5.05;;
7179;SDS011;3631;42.152;24.756;2023-06-04T04:03:53;5.38;;;5.07;;
7179;SDS011;3631;42.152;24.756;2023-06-04T04:06:20;5.78;;;5.22;;
7179;SDS011;3631;42.152;24.756;2023-06-04T04:08:48;7.47;;;5.90;;
7179;SDS011;3631;42.152;24.756;2023-06-04T04:11:15;7.43;;;5.50;;
7179;SDS011;3631;42.152;24.756;2023-06-04T04:13:42;6.72;;;5.95;;
7179;SDS011;3631;42.152;24.756;2023-06-04T04:16:12;6.18;;;5.68;;
7179;SDS011;3631;42.152;24.756;2023-06-04T04:18:40;7.13;;;5.43;;
7179;SDS011;3631;42.152;24.756;2023-06-04T04:21:08;5.88;;;5.38;;
7179;SDS011;3631;42.152;24.756;2023-06-04T04:23:37;6.63;;;5.55;;
7179;SDS011;3631;42.152;24.756;2023-06-04T04:26:05;6.57;;;6.15;;
7179;SDS011;3631;42.152;24.756;2023-06-04T04:28:31;10.18;;;7.10;;
7179;SDS011;3631;42.152;24.756;2023-06-04T04:30:59;6.35;;;5.00;;
7179;SDS011;3631;42.152;24.756;2023-06-04T04:33:29;6.95;;;5.43;;
7179;SDS011;3631;42.152;24.756;2023-06-04T04:36:04;7.82;;;5.13;;
7179;SDS011;3631;42.152;24.756;2023-06-04T04:38:34;6.25;;;5.53;;
7179;SDS011;3631;42.152;24.756;2023-06-04T04:41:01;6.47;;;5.88;;
7179;SDS011;3631;42.152;24.756;2023-06-04T04:43:28;6.30;;;5.80;;
7179;SDS011;3631;42.152;24.756;2023-06-04T04:45:56;6.25;;;5.78;;
7179;SDS011;3631;42.152;24.756;2023-06-04T04:48:23;7.72;;;5.80;;
7179;SDS011;3631;42.152;24.756;2023-06-04T04:50:52;6.10;;;5.60;;
7179;SDS011;3631;42.152;24.756;2023-06-04T04:53:20;6.63;;;6.13;;
7179;SDS011;3631;42.152;24.756;2023-06-04T04:55:47;6.47;;;5.97;;
7179;SDS011;3631;42.152;24.756;2023-06-04T04:58:14;7.40;;;5.80;;
7179;SDS011;3631;42.152;24.756;2023-06-04T05:00:41;5.82;;;5.43;;
7179;SDS011;3631;42.152;24.756;2023-06-04T05:03:08;7.32;;;6.57;;
7179;SDS011;3631;42.152;24.756;2023-06-04T05:05:35;6.68;;;6.15;;
7179;SDS011;3631;42.152;24.756;2023-06-04T05:08:04;6.50;;;6.10;;
7179;SDS011;3631;42.152;24.756;2023-06-04T05:10:31;7.32;;;6.20;;
7179;SDS011;3631;42.152;24.756;2023-06-04T05:12:58;7.03;;;6.32;;
7179;SDS011;3631;42.152;24.756;2023-06-04T05:15:26;8.73;;;6.47;;
7179;SDS011;3631;42.152;24.756;2023-06-04T05:17:53;6.97;;;6.38;;
7179;SDS011;3631;42.152;24.756;2023-06-04T05:20:21;6.80;;;6.20;;
7179;SDS011;3631;42.152;24.756;2023-06-04T05:22:48;9.55;;;6.95;;
7179;SDS011;3631;42.152;24.756;2023-06-04T05:25:17;10.43;;;6.45;;
7179;SDS011;3631;42.152;24.756;2023-06-04T05:27:44;8.85;;;6.40;;
7179;SDS011;3631;42.152;24.756;2023-06-04T05:30:14;7.03;;;6.53;;
7179;SDS011;3631;42.152;24.756;2023-06-04T05:32:41;7.05;;;6.43;;
7179;SDS011;3631;42.152;24.756;2023-06-04T05:35:08;10.57;;;7.15;;
7179;SDS011;3631;42.152;24.756;2023-06-04T05:37:35;13.65;;;10.10;;
7179;SDS011;3631;42.152;24.756;2023-06-04T05:40:06;8.13;;;7.38;;
7179;SDS011;3631;42.152;24.756;2023-06-04T05:42:35;7.75;;;7.03;;
7179;SDS011;3631;42.152;24.756;2023-06-04T05:45:03;7.05;;;6.35;;
7179;SDS011;3631;42.152;24.756;2023-06-04T05:47:30;11.57;;;6.95;;
7179;SDS011;3631;42.152;24.756;2023-06-04T05:49:57;9.68;;;7.18;;
7179;SDS011;3631;42.152;24.756;2023-06-04T05:52:24;10.60;;;6.90;;
7179;SDS011;3631;42.152;24.756;2023-06-04T05:54:51;11.30;;;7.32;;
7179;SDS011;3631;42.152;24.756;2023-06-04T05:57:18;7.47;;;6.88;;
7179;SDS011;3631;42.152;24.756;2023-06-04T05:59:47;7.85;;;7.10;;
7179;SDS011;3631;42.152;24.756;2023-06-04T06:02:14;7.70;;;6.60;;
7179;SDS011;3631;42.152;24.756;2023-06-04T06:04:42;7.80;;;7.07;;
7179;SDS011;3631;42.152;24.756;2023-06-04T06:07:09;7.82;;;7.13;;
7179;SDS011;3631;42.152;24.756;2023-06-04T06:09:36;8.32;;;7.53;;
7179;SDS011;3631;42.152;24.756;2023-06-04T06:12:03;8.15;;;7.00;;
7179;SDS011;3631;42.152;24.756;2023-06-04T06:14:30;7.32;;;6.82;;
7179;SDS011;3631;42.152;24.756;2023-06-04T06:16:59;9.55;;;8.52;;
7179;SDS011;3631;42.152;24.756;2023-06-04T06:19:28;8.77;;;7.50;;
7179;SDS011;3631;42.152;24.756;2023-06-04T06:21:55;9.23;;;8.30;;
7179;SDS011;3631;42.152;24.756;2023-06-04T06:24:24;8.32;;;7.63;;
7179;SDS011;3631;42.152;24.756;2023-06-04T06:26:50;8.65;;;8.05;;
7179;SDS011;3631;42.152;24.756;2023-06-04T06:29:17;8.57;;;7.57;;
7179;SDS011;3631;42.152;24.756;2023-06-04T06:31:44;9.60;;;8.30;;
7179;SDS011;3631;42.152;24.756;2023-06-04T06:34:12;9.25;;;8.27;;
7179;SDS011;3631;42.152;24.756;2023-06-04T06:36:39;10.18;;;8.15;;
7179;SDS011;3631;42.152;24.756;2023-06-04T06:39:06;9.38;;;7.90;;
7179;SDS011;3631;42.152;24.756;2023-06-04T06:41:33;7.82;;;7.15;;
7179;SDS011;3631;42.152;24.756;2023-06-04T06:44:01;10.13;;;8.50;;
7179;SDS011;3631;42.152;24.756;2023-06-04T06:46:27;9.75;;;8.38;;
7179;SDS011;3631;42.152;24.756;2023-06-04T06:48:54;10.02;;;9.07;;
7179;SDS011;3631;42.152;24.756;2023-06-04T06:51:23;17.08;;;8.88;;
7179;SDS011;3631;42.152;24.756;2023-06-04T06:53:50;12.30;;;9.75;;
7179;SDS011;3631;42.152;24.756;2023-06-04T06:56:17;9.93;;;9.00;;
7179;SDS011;3631;42.152;24.756;2023-06-04T06:58:44;10.70;;;9.60;;
7179;SDS011;3631;42.152;24.756;2023-06-04T07:01:11;10.27;;;9.30;;
7179;SDS011;3631;42.152;24.756;2023-06-04T07:03:38;11.40;;;9.48;;
7179;SDS011;3631;42.152;24.756;2023-06-04T07:06:05;10.75;;;9.70;;
7179;SDS011;3631;42.152;24.756;2023-06-04T07:08:34;12.77;;;10.02;;
7179;SDS011;3631;42.152;24.756;2023-06-04T07:11:01;9.32;;;8.27;;
7179;SDS011;3631;42.152;24.756;2023-06-04T07:13:29;9.60;;;8.65;;
7179;SDS011;3631;42.152;24.756;2023-06-04T07:15:57;8.55;;;7.68;;
7179;SDS011;3631;42.152;24.756;2023-06-04T07:18:25;8.77;;;7.65;;
7179;SDS011;3631;42.152;24.756;2023-06-04T07:20:52;7.70;;;7.00;;
7179;SDS011;3631;42.152;24.756;2023-06-04T07:23:19;7.65;;;7.00;;
7179;SDS011;3631;42.152;24.756;2023-06-04T07:25:47;8.38;;;7.65;;
7179;SDS011;3631;42.152;24.756;2023-06-04T07:28:14;7.75;;;7.05;;
7179;SDS011;3631;42.152;24.756;2023-06-04T07:30:41;8.27;;;7.57;;
7179;SDS011;3631;42.152;24.756;2023-06-04T07:33:08;8.20;;;7.38;;
7179;SDS011;3631;42.152;24.756;2023-06-04T07:35:35;8.10;;;7.32;;
7179;SDS011;3631;42.152;24.756;2023-06-04T07:38:01;8.38;;;7.57;;
7179;SDS011;3631;42.152;24.756;2023-06-04T07:40:28;8.30;;;7.70;;
7179;SDS011;3631;42.152;24.756;2023-06-04T07:42:57;8.88;;;8.18;;
7179;SDS011;3631;42.152;24.756;2023-06-04T07:45:24;8.73;;;8.10;;
7179;SDS011;3631;42.152;24.756;2023-06-04T07:47:53;9.15;;;8.38;;
7179;SDS011;3631;42.152;24.756;2023-06-04T07:50:20;8.98;;;8.30;;
7179;SDS011;3631;42.152;24.756;2023-06-04T07:52:47;8.98;;;7.95;;
7179;SDS011;3631;42.152;24.756;2023-06-04T07:55:14;9.70;;;8.63;;
7179;SDS011;3631;42.152;24.756;2023-06-04T07:57:41;9.75;;;8.45;;
7179;SDS011;3631;42.152;24.756;2023-06-04T08:00:10;10.02;;;9.13;;
7179;SDS011;3631;42.152;24.756;2023-06-04T08:02:39;9.93;;;9.05;;
7179;SDS011;3631;42.152;24.756;2023-06-04T08:05:06;9.05;;;8.18;;
7179;SDS011;3631;42.152;24.756;2023-06-04T08:07:33;10.10;;;8.52;;
7179;SDS011;3631;42.152;24.756;2023-06-04T08:10:00;13.35;;;9.18;;
7179;SDS011;3631;42.152;24.756;2023-06-04T08:12:27;11.15;;;8.68;;
7179;SDS011;3631;42.152;24.756;2023-06-04T08:14:54;9.23;;;8.48;;
7179;SDS011;3631;42.152;24.756;2023-06-04T08:17:23;12.65;;;8.93;;
7179;SDS011;3631;42.152;24.756;2023-06-04T08:19:50;9.48;;;8.60;;
7179;SDS011;3631;42.152;24.756;2023-06-04T08:22:17;8.60;;;8.00;;
7179;SDS011;3631;42.152;24.756;2023-06-04T08:24:44;10.23;;;9.10;;
7179;SDS011;3631;42.152;24.756;2023-06-04T08:27:11;9.55;;;8.75;;
7179;SDS011;3631;42.152;24.756;2023-06-04T08:29:38;9.45;;;8.50;;
7179;SDS011;3631;42.152;24.756;2023-06-04T08:32:06;10.15;;;9.25;;
7179;SDS011;3631;42.152;24.756;2023-06-04T08:34:35;10.50;;;8.60;;
7179;SDS011;3631;42.152;24.756;2023-06-04T08:37:02;9.02;;;8.23;;
7179;SDS011;3631;42.152;24.756;2023-06-04T08:39:29;8.48;;;7.80;;
7179;SDS011;3631;42.152;24.756;2023-06-04T08:41:56;9.43;;;7.03;;
7179;SDS011;3631;42.152;24.756;2023-06-04T08:44:27;7.25;;;6.63;;
7179;SDS011;3631;42.152;24.756;2023-06-04T08:46:56;9.05;;;7.10;;
7179;SDS011;3631;42.152;24.756;2023-06-04T08:49:28;8.32;;;6.35;;
7179;SDS011;3631;42.152;24.756;2023-06-04T08:52:00;9.77;;;6.35;;
7179;SDS011;3631;42.152;24.756;2023-06-04T08:54:28;6.70;;;6.20;;
7179;SDS011;3631;42.152;24.756;2023-06-04T08:56:56;8.13;;;7.15;;
7179;SDS011;3631;42.152;24.756;2023-06-04T08:59:23;9.07;;;8.18;;
7179;SDS011;3631;42.152;24.756;2023-06-04T09:01:51;12.13;;;8.00;;
7179;SDS011;3631;42.152;24.756;2023-06-04T09:04:19;8.73;;;7.93;;
7179;SDS011;3631;42.152;24.756;2023-06-04T09:06:47;8.82;;;7.97;;
7179;SDS011;3631;42.152;24.756;2023-06-04T09:09:16;12.65;;;8.00;;
7179;SDS011;3631;42.152;24.756;2023-06-04T09:11:46;9.70;;;7.93;;
7179;SDS011;3631;42.152;24.756;2023-06-04T09:14:18;9.52;;;8.25;;
7179;SDS011;3631;42.152;24.756;2023-06-04T09:16:45;7.95;;;7.32;;
7179;SDS011;3631;42.152;24.756;2023-06-04T09:19:14;11.38;;;7.63;;
7179;SDS011;3631;42.152;24.756;2023-06-04T09:21:51;8.10;;;7.47;;
7179;SDS011;3631;42.152;24.756;2023-06-04T09:24:20;9.32;;;7.00;;
7179;SDS011;3631;42.152;24.756;2023-06-04T09:26:47;7.75;;;7.00;;
7179;SDS011;3631;42.152;24.756;2023-06-04T09:29:14;8.95;;;7.85;;
7179;SDS011;3631;42.152;24.756;2023-06-04T09:31:44;8.63;;;7.85;;
7179;SDS011;3631;42.152;24.756;2023-06-04T09:34:12;9.95;;;7.93;;
7179;SDS011;3631;42.152;24.756;2023-06-04T09:36:39;9.02;;;8.23;;
7179;SDS011;3631;42.152;24.756;2023-06-04T09:39:14;9.00;;;7.97;;
7179;SDS011;3631;42.152;24.756;2023-06-04T09:41:43;9.25;;;7.80;;
7179;SDS011;3631;42.152;24.756;2023-06-04T09:44:10;8.18;;;7.40;;
7179;SDS011;3631;42.152;24.756;2023-06-04T09:46:37;7.97;;;7.28;;
7179;SDS011;3631;42.152;24.756;2023-06-04T09:49:04;8.32;;;7.13;;
7179;SDS011;3631;42.152;24.756;2023-06-04T09:51:32;8.15;;;6.53;;
7179;SDS011;3631;42.152;24.756;2023-06-04T09:53:59;7.88;;;6.25;;
7179;SDS011;3631;42.152;24.756;2023-06-04T09:56:27;5.88;;;5.43;;
7179;SDS011;3631;42.152;24.756;2023-06-04T09:58:56;10.85;;;6.30;;
7179;SDS011;3631;42.152;24.756;2023-06-04T10:01:27;6.00;;;5.43;;
7179;SDS011;3631;42.152;24.756;2023-06-04T10:03:57;6.45;;;6.03;;
7179;SDS011;3631;42.152;24.756;2023-06-04T10:06:28;7.78;;;6.40;;
7179;SDS011;3631;42.152;24.756;2023-06-04T10:08:59;6.35;;;5.85;;
7179;SDS011;3631;42.152;24.756;2023-06-04T10:11:32;8.05;;;7.10;;
7179;SDS011;3631;42.152;24.756;2023-06-04T10:14:03;7.10;;;6.60;;
7179;SDS011;3631;42.152;24.756;2023-06-04T10:16:38;9.63;;;6.75;;
7179;SDS011;3631;42.152;24.756;2023-06-04T10:19:07;7.72;;;6.80;;
7179;SDS011;3631;42.152;24.756;2023-06-04T10:21:34;7.07;;;6.43;;
7179;SDS011;3631;42.152;24.756;2023-06-04T10:24:02;9.45;;;5.70;;
7179;SDS011;3631;42.152;24.756;2023-06-04T10:26:30;6.85;;;4.45;;
7179;SDS011;3631;42.152;24.756;2023-06-04T10:29:00;6.47;;;4.50;;
7179;SDS011;3631;42.152;24.756;2023-06-04T10:31:29;5.55;;;3.80;;
7179;SDS011;3631;42.152;24.756;2023-06-04T10:33:56;4.00;;;3.80;;
7179;SDS011;3631;42.152;24.756;2023-06-04T10:36:23;5.43;;;5.00;;
7179;SDS011;3631;42.152;24.756;2023-06-04T10:38:51;4.20;;;3.90;;
7179;SDS011;3631;42.152;24.756;2023-06-04T10:41:19;5.30;;;4.90;;
7179;SDS011;3631;42.152;24.756;2023-06-04T10:43:48;5.60;;;5.10;;
7179;SDS011;3631;42.152;24.756;2023-06-04T10:46:16;6.65;;;5.60;;
7179;SDS011;3631;42.152;24.756;2023-06-04T10:48:48;6.43;;;5.15;;
7179;SDS011;3631;42.152;24.756;2023-06-04T10:51:17;7.43;;;5.35;;
7179;SDS011;3631;42.152;24.756;2023-06-04T10:53:56;6.90;;;4.55;;
7179;SDS011;3631;42.152;24.756;2023-06-04T10:56:26;4.97;;;4.57;;
7179;SDS011;3631;42.152;24.756;2023-06-04T10:58:53;8.50;;;7.85;;
7179;SDS011;3631;42.152;24.756;2023-06-04T11:01:24;9.60;;;8.43;;
7179;SDS011;3631;42.152;24.756;2023-06-04T11:03:53;8.45;;;7.93;;
7179;SDS011;3631;42.152;24.756;2023-06-04T11:06:21;9.90;;;9.00;;
7179;SDS011;3631;42.152;24.756;2023-06-04T11:09:00;9.95;;;8.48;;
7179;SDS011;3631;42.152;24.756;2023-06-04T11:11:28;10.23;;;9.32;;
7179;SDS011;3631;42.152;24.756;2023-06-04T11:13:56;8.98;;;7.97;;
7179;SDS011;3631;42.152;24.756;2023-06-04T11:16:34;9.77;;;8.95;;
7179;SDS011;3631;42.152;24.756;2023-06-04T11:19:02;9.05;;;8.35;;
7179;SDS011;3631;42.152;24.756;2023-06-04T11:21:29;9.82;;;8.50;;
7179;SDS011;3631;42.152;24.756;2023-06-04T11:23:57;9.35;;;8.70;;
7179;SDS011;3631;42.152;24.756;2023-06-04T11:26:29;9.00;;;8.30;;
7179;SDS011;3631;42.152;24.756;2023-06-04T11:28:57;8.68;;;7.88;;
7179;SDS011;3631;42.152;24.756;2023-06-04T11:31:24;16.92;;;8.75;;
7179;SDS011;3631;42.152;24.756;2023-06-04T11:33:51;9.75;;;8.85;;
7179;SDS011;3631;42.152;24.756;2023-06-04T11:36:28;10.90;;;9.85;;
7179;SDS011;3631;42.152;24.756;2023-06-04T11:38:56;9.52;;;8.80;;
7179;SDS011;3631;42.152;24.756;2023-06-04T11:41:24;8.40;;;7.60;;
7179;SDS011;3631;42.152;24.756;2023-06-04T11:43:53;8.52;;;7.97;;
7179;SDS011;3631;42.152;24.756;2023-06-04T11:46:21;8.55;;;7.80;;
7179;SDS011;3631;42.152;24.756;2023-06-04T11:48:50;8.30;;;7.70;;
7179;SDS011;3631;42.152;24.756;2023-06-04T11:51:19;11.00;;;7.18;;
7179;SDS011;3631;42.152;24.756;2023-06-04T11:53:47;8.82;;;8.07;;
7179;SDS011;3631;42.152;24.756;2023-06-04T11:56:14;7.95;;;7.38;;
7179;SDS011;3631;42.152;24.756;2023-06-04T11:58:42;10.20;;;6.60;;
7179;SDS011;3631;42.152;24.756;2023-06-04T12:01:11;6.93;;;6.40;;
7179;SDS011;3631;42.152;24.756;2023-06-04T12:03:39;10.68;;;6.57;;
7179;SDS011;3631;42.152;24.756;2023-06-04T12:06:13;6.55;;;5.93;;
7179;SDS011;3631;42.152;24.756;2023-06-04T12:08:46;6.97;;;6.32;;
7179;SDS011;3631;42.152;24.756;2023-06-04T12:14:03;7.32;;;6.68;;
7179;SDS011;3631;42.152;24.756;2023-06-04T12:16:31;8.75;;;7.65;;
7179;SDS011;3631;42.152;24.756;2023-06-04T12:19:05;9.35;;;6.82;;
7179;SDS011;3631;42.152;24.756;2023-06-04T12:21:33;7.20;;;6.57;;
7179;SDS011;3631;42.152;24.756;2023-06-04T12:24:08;8.43;;;7.47;;
7179;SDS011;3631;42.152;24.756;2023-06-04T12:26:36;8.15;;;7.43;;
7179;SDS011;3631;42.152;24.756;2023-06-04T12:29:09;7.82;;;7.22;;
7179;SDS011;3631;42.152;24.756;2023-06-04T12:31:37;7.97;;;7.25;;
7179;SDS011;3631;42.152;24.756;2023-06-04T12:34:05;8.68;;;7.28;;
7179;SDS011;3631;42.152;24.756;2023-06-04T12:36:32;8.60;;;7.97;;
7179;SDS011;3631;42.152;24.756;2023-06-04T12:39:00;11.23;;;8.00;;
7179;SDS011;3631;42.152;24.756;2023-06-04T12:41:31;7.85;;;7.05;;
7179;SDS011;3631;42.152;24.756;2023-06-04T12:43:59;9.50;;;7.70;;
7179;SDS011;3631;42.152;24.756;2023-06-04T12:46:27;7.35;;;6.75;;
7179;SDS011;3631;42.152;24.756;2023-06-04T12:48:54;7.88;;;7.30;;
7179;SDS011;3631;42.152;24.756;2023-06-04T12:51:21;8.27;;;7.53;;
7179;SDS011;3631;42.152;24.756;2023-06-04T12:53:48;10.85;;;7.88;;
7179;SDS011;3631;42.152;24.756;2023-06-04T12:56:16;8.77;;;8.13;;
7179;SDS011;3631;42.152;24.756;2023-06-04T12:58:44;13.98;;;10.25;;
7179;SDS011;3631;42.152;24.756;2023-06-04T13:01:11;8.23;;;7.63;;
7179;SDS011;3631;42.152;24.756;2023-06-04T13:03:39;12.13;;;8.77;;
7179;SDS011;3631;42.152;24.756;2023-06-04T13:06:06;7.82;;;7.22;;
7179;SDS011;3631;42.152;24.756;2023-06-04T13:08:33;8.15;;;7.40;;
7179;SDS011;3631;42.152;24.756;2023-06-04T13:11:00;7.65;;;7.05;;
7179;SDS011;3631;42.152;24.756;2023-06-04T13:13:27;7.80;;;7.10;;
7179;SDS011;3631;42.152;24.756;2023-06-04T13:15:56;8.32;;;7.60;;
7179;SDS011;3631;42.152;24.756;2023-06-04T13:18:23;9.20;;;8.27;;
7179;SDS011;3631;42.152;24.756;2023-06-04T13:20:50;9.00;;;7.75;;
7179;SDS011;3631;42.152;24.756;2023-06-04T13:23:17;8.20;;;7.50;;
7179;SDS011;3631;42.152;24.756;2023-06-04T13:25:44;8.38;;;7.65;;
7179;SDS011;3631;42.152;24.756;2023-06-04T13:28:11;7.57;;;6.88;;
7179;SDS011;3631;42.152;24.756;2023-06-04T13:30:38;7.05;;;6.45;;
7179;SDS011;3631;42.152;24.756;2023-06-04T13:33:06;7.00;;;6.50;;
7179;SDS011;3631;42.152;24.756;2023-06-04T13:35:33;6.90;;;6.38;;
7179;SDS011;3631;42.152;24.756;2023-06-04T13:38:02;7.05;;;6.50;;
7179;SDS011;3631;42.152;24.756;2023-06-04T13:40:30;6.85;;;6.45;;
7179;SDS011;3631;42.152;24.756;2023-06-04T13:42:57;7.65;;;6.95;;
7179;SDS011;3631;42.152;24.756;2023-06-04T13:45:24;7.53;;;6.72;;
7179;SDS011;3631;42.152;24.756;2023-06-04T13:47:51;7.88;;;6.68;;
7179;SDS011;3631;42.152;24.756;2023-06-04T13:50:19;7.43;;;6.80;;
7179;SDS011;3631;42.152;24.756;2023-06-04T13:52:46;7.10;;;6.53;;
7179;SDS011;3631;42.152;24.756;2023-06-04T13:55:13;7.35;;;6.65;;
7179;SDS011;3631;42.152;24.756;2023-06-04T13:57:40;7.45;;;6.93;;
7179;SDS011;3631;42.152;24.756;2023-06-04T14:00:07;7.75;;;7.15;;
7179;SDS011;3631;42.152;24.756;2023-06-04T14:02:35;7.03;;;6.53;;
7179;SDS011;3631;42.152;24.756;2023-06-04T14:05:04;8.02;;;6.32;;
7179;SDS011;3631;42.152;24.756;2023-06-04T14:07:33;6.70;;;6.13;;
7179;SDS011;3631;42.152;24.756;2023-06-04T14:10:00;6.40;;;5.95;;
7179;SDS011;3631;42.152;24.756;2023-06-04T14:12:27;7.00;;;6.32;;
7179;SDS011;3631;42.152;24.756;2023-06-04T14:14:54;7.13;;;6.40;;
7179;SDS011;3631;42.152;24.756;2023-06-04T14:17:21;7.47;;;6.90;;
7179;SDS011;3631;42.152;24.756;2023-06-04T14:19:47;8.10;;;7.35;;
7179;SDS011;3631;42.152;24.756;2023-06-04T14:22:14;7.93;;;7.28;;
7179;SDS011;3631;42.152;24.756;2023-06-04T14:24:43;8.52;;;7.82;;
7179;SDS011;3631;42.152;24.756;2023-06-04T14:27:10;8.77;;;7.97;;
7179;SDS011;3631;42.152;24.756;2023-06-04T14:29:37;8.52;;;7.93;;
7179;SDS011;3631;42.152;24.756;2023-06-04T14:32:04;8.60;;;7.95;;
7179;SDS011;3631;42.152;24.756;2023-06-04T14:34:31;7.60;;;7.10;;
7179;SDS011;3631;42.152;24.756;2023-06-04T14:36:58;7.88;;;7.20;;
7179;SDS011;3631;42.152;24.756;2023-06-04T14:39:25;7.68;;;7.00;;
7179;SDS011;3631;42.152;24.756;2023-06-04T14:41:54;7.70;;;7.05;;
7179;SDS011;3631;42.152;24.756;2023-06-04T14:44:21;8.13;;;7.35;;
7179;SDS011;3631;42.152;24.756;2023-06-04T14:46:48;7.18;;;6.53;;
7179;SDS011;3631;42.152;24.756;2023-06-04T14:49:17;7.85;;;7.28;;
7179;SDS011;3631;42.152;24.756;2023-06-04T14:51:43;7.22;;;6.60;;
7179;SDS011;3631;42.152;24.756;2023-06-04T14:54:11;7.35;;;6.78;;
7179;SDS011;3631;42.152;24.756;2023-06-04T14:56:38;6.97;;;6.50;;
7179;SDS011;3631;42.152;24.756;2023-06-04T14:59:07;8.23;;;6.50;;
7179;SDS011;3631;42.152;24.756;2023-06-04T15:01:36;7.43;;;6.70;;
7179;SDS011;3631;42.152;24.756;2023-06-04T15:04:04;8.15;;;7.45;;
7179;SDS011;3631;42.152;24.756;2023-06-04T15:06:31;7.00;;;6.32;;
7179;SDS011;3631;42.152;24.756;2023-06-04T15:08:58;6.70;;;6.30;;
7179;SDS011;3631;42.152;24.756;2023-06-04T15:11:25;7.78;;;6.80;;